sensor_id;sensor_type;location;lat;lon;timestamp;temperature;humidity
9939;DHT22;5008;50.656;7.188;2024-01-16T05:02:32;2.20;99.90
9939;DHT22;5008;50.656;7.188;2024-01-16T05:04:59;2.20;99.90
9939;DHT22;5008;50.656;7.188;2024-01-16T05:07:25;2.20;99.90
9939;DHT22;5008;50.656;7.188;2024-01-16T05:09:52;2.00;99.90
9939;DHT22;5008;50.656;7.188;2024-01-16T05:12:20;2.00;99.90
9939;DHT22;5008;50.656;7.188;2024-01-16T05:14:48;2.10;99.90
9939;DHT22;5008;50.656;7.188;2024-01-16T05:17:14;2.10;99.90
9939;DHT22;5008;50.656;7.188;2024-01-16T05:19:43;2.10;99.90
9939;DHT22;5008;50.656;7.188;2024-01-16T05:22:11;2.00;99.90
9939;DHT22;5008;50.656;7.188;2024-01-16T05:24:38;2.10;99.90
9939;DHT22;5008;50.656;7.188;2024-01-16T05:27:06;2.10;99.90
9939;DHT22;5008;50.656;7.188;2024-01-16T05:29:33;2.10;99.90
9939;DHT22;5008;50.656;7.188;2024-01-16T05:31:59;2.00;99.90
9939;DHT22;5008;50.656;7.188;2024-01-16T05:34:26;2.00;99.90
9939;DHT22;5008;50.656;7.188;2024-01-16T05:36:55;2.10;99.90
9939;DHT22;5008;50.656;7.188;2024-01-16T05:39:22;2.00;99.90
9939;DHT22;5008;50.656;7.188;2024-01-16T05:41:49;2.00;99.90
9939;DHT22;5008;50.656;7.188;2024-01-16T05:44:17;2.00;99.90
9939;DHT22;5008;50.656;7.188;2024-01-16T05:46:43;2.00;99.90
9939;DHT22;5008;50.656;7.188;2024-01-16T05:49:10;2.00;99.90
9939;DHT22;5008;50.656;7.188;2024-01-16T05:51:37;1.90;99.90
9939;DHT22;5008;50.656;7.188;2024-01-16T05:54:05;2.00;99.90
9939;DHT22;5008;50.656;7.188;2024-01-16T05:56:32;2.00;99.90
9939;DHT22;5008;50.656;7.188;2024-01-16T05:58:59;2.10;99.90
9939;DHT22;5008;50.656;7.188;2024-01-16T06:01:26;2.10;99.90
9939;DHT22;5008;50.656;7.188;2024-01-16T06:03:53;2.10;99.90
9939;DHT22;5008;50.656;7.188;2024-01-16T06:06:20;2.10;99.90
9939;DHT22;5008;50.656;7.188;2024-01-16T06:08:47;2.10;99.90
9939;DHT22;5008;50.656;7.188;2024-01-16T06:11:15;2.10;99.90
9939;DHT22;5008;50.656;7.188;2024-01-16T06:13:41;2.00;99.90
9939;DHT22;5008;50.656;7.188;2024-01-16T06:16:09;2.00;99.90
9939;DHT22;5008;50.656;7.188;2024-01-16T06:18:36;2.10;99.90
9939;DHT22;5008;50.656;7.188;2024-01-16T06:21:03;2.10;99.90
9939;DHT22;5008;50.656;7.188;2024-01-16T06:23:30;2.10;99.90
9939;DHT22;5008;50.656;7.188;2024-01-16T06:25:57;2.10;99.90
9939;DHT22;5008;50.656;7.188;2024-01-16T06:28:25;2.00;99.90
9939;DHT22;5008;50.656;7.188;2024-01-16T06:30:52;2.00;99.90
9939;DHT22;5008;50.656;7.188;2024-01-16T06:33:19;2.00;99.90
9939;DHT22;5008;50.656;7.188;2024-01-16T06:35:45;2.00;99.90
9939;DHT22;5008;50.656;7.188;2024-01-16T06:38:13;2.00;99.90
9939;DHT22;5008;50.656;7.188;2024-01-16T06:40:40;2.00;99.90
9939;DHT22;5008;50.656;7.188;2024-01-16T06:43:06;2.00;99.90
9939;DHT22;5008;50.656;7.188;2024-01-16T06:45:35;2.10;99.90
9939;DHT22;5008;50.656;7.188;2024-01-16T06:48:02;2.10;99.90
9939;DHT22;5008;50.656;7.188;2024-01-16T06:50:29;2.10;99.90
9939;DHT22;5008;50.656;7.188;2024-01-16T06:52:56;2.00;99.90
9939;DHT22;5008;50.656;7.188;2024-01-16T06:55:23;1.90;99.90
9939;DHT22;5008;50.656;7.188;2024-01-16T06:57:49;2.00;99.90
9939;DHT22;5008;50.656;7.188;2024-01-16T07:00:16;2.00;99.90
9939;DHT22;5008;50.656;7.188;2024-01-16T07:02:44;2.00;99.90
9939;DHT22;5008;50.656;7.188;2024-01-16T07:05:11;2.00;99.90
9939;DHT22;5008;50.656;7.188;2024-01-16T07:07:38;2.00;99.90
9939;DHT22;5008;50.656;7.188;2024-01-16T07:10:06;1.90;99.90
9939;DHT22;5008;50.656;7.188;2024-01-16T07:12:33;1.80;99.90
9939;DHT22;5008;50.656;7.188;2024-01-16T07:15:00;1.80;99.90
9939;DHT22;5008;50.656;7.188;2024-01-16T07:17:27;1.70;99.90
9939;DHT22;5008;50.656;7.188;2024-01-16T07:19:55;1.70;99.90
9939;DHT22;5008;50.656;7.188;2024-01-16T07:22:24;1.70;99.90
9939;DHT22;5008;50.656;7.188;2024-01-16T07:24:50;1.70;99.90
9939;DHT22;5008;50.656;7.188;2024-01-16T07:27:17;1.70;99.90
9939;DHT22;5008;50.656;7.188;2024-01-16T07:29:44;1.80;99.90
9939;DHT22;5008;50.656;7.188;2024-01-16T07:32:11;1.70;99.90
9939;DHT22;5008;50.656;7.188;2024-01-16T07:34:37;1.70;99.90
9939;DHT22;5008;50.656;7.188;2024-01-16T07:37:05;1.70;99.90
9939;DHT22;5008;50.656;7.188;2024-01-16T07:39:32;1.60;99.90
9939;DHT22;5008;50.656;7.188;2024-01-16T07:41:59;1.70;99.90
9939;DHT22;5008;50.656;7.188;2024-01-16T07:44:26;1.70;99.90
9939;DHT22;5008;50.656;7.188;2024-01-16T07:46:52;1.70;99.90
9939;DHT22;5008;50.656;7.188;2024-01-16T07:49:19;1.70;99.90
9939;DHT22;5008;50.656;7.188;2024-01-16T07:51:46;1.70;99.90
9939;DHT22;5008;50.656;7.188;2024-01-16T07:54:14;1.70;99.90
9939;DHT22;5008;50.656;7.188;2024-01-16T07:56:41;1.70;99.90
9939;DHT22;5008;50.656;7.188;2024-01-16T07:59:08;1.80;99.90
9939;DHT22;5008;50.656;7.188;2024-01-16T08:01:35;1.90;99.90
9939;DHT22;5008;50.656;7.188;2024-01-16T08:04:01;1.80;99.90
9939;DHT22;5008;50.656;7.188;2024-01-16T08:06:29;1.90;99.90
9939;DHT22;5008;50.656;7.188;2024-01-16T08:08:56;1.90;99.90
9939;DHT22;5008;50.656;7.188;2024-01-16T08:11:24;1.90;99.90
9939;DHT22;5008;50.656;7.188;2024-01-16T08:13:51;1.90;99.90
9939;DHT22;5008;50.656;7.188;2024-01-16T08:16:17;1.90;99.90
9939;DHT22;5008;50.656;7.188;2024-01-16T08:18:44;1.70;99.90
9939;DHT22;5008;50.656;7.188;2024-01-16T08:21:20;1.80;99.90
9939;DHT22;5008;50.656;7.188;2024-01-16T08:23:47;1.90;99.90
9939;DHT22;5008;50.656;7.188;2024-01-16T08:26:14;1.80;99.90
9939;DHT22;5008;50.656;7.188;2024-01-16T08:28:42;1.90;99.90
9939;DHT22;5008;50.656;7.188;2024-01-16T08:31:09;1.90;99.90
9939;DHT22;5008;50.656;7.188;2024-01-16T08:33:35;1.90;99.90
9939;DHT22;5008;50.656;7.188;2024-01-16T08:36:03;1.90;99.90
9939;DHT22;5008;50.656;7.188;2024-01-16T08:38:30;2.00;99.90
9939;DHT22;5008;50.656;7.188;2024-01-16T08:40:56;2.00;99.90
9939;DHT22;5008;50.656;7.188;2024-01-16T08:43:23;2.00;99.90
9939;DHT22;5008;50.656;7.188;2024-01-16T08:45:51;1.90;99.90
9939;DHT22;5008;50.656;7.188;2024-01-16T08:48:18;1.80;99.90
9939;DHT22;5008;50.656;7.188;2024-01-16T08:50:45;1.80;99.90
9939;DHT22;5008;50.656;7.188;2024-01-16T08:53:12;1.90;99.90
9939;DHT22;5008;50.656;7.188;2024-01-16T08:55:38;1.90;99.90
9939;DHT22;5008;50.656;7.188;2024-01-16T08:58:15;1.90;99.90
9939;DHT22;5008;50.656;7.188;2024-01-16T09:00:42;1.80;99.90
9939;DHT22;5008;50.656;7.188;2024-01-16T09:03:11;2.00;99.90
9939;DHT22;5008;50.656;7.188;2024-01-16T09:05:38;1.90;99.90
9939;DHT22;5008;50.656;7.188;2024-01-16T09:08:05;1.90;99.90
9939;DHT22;5008;50.656;7.188;2024-01-16T09:10:32;2.00;99.90
9939;DHT22;5008;50.656;7.188;2024-01-16T09:12:58;1.90;99.90
9939;DHT22;5008;50.656;7.188;2024-01-16T09:15:25;1.90;99.90
9939;DHT22;5008;50.656;7.188;2024-01-16T09:17:52;1.80;99.90
9939;DHT22;5008;50.656;7.188;2024-01-16T09:20:20;1.90;99.90
9939;DHT22;5008;50.656;7.188;2024-01-16T09:22:47;1.90;99.90
9939;DHT22;5008;50.656;7.188;2024-01-16T09:25:14;1.90;99.90
9939;DHT22;5008;50.656;7.188;2024-01-16T09:27:41;2.00;99.90
9939;DHT22;5008;50.656;7.188;2024-01-16T09:30:09;2.10;99.90
9939;DHT22;5008;50.656;7.188;2024-01-16T09:32:35;2.10;99.90
9939;DHT22;5008;50.656;7.188;2024-01-16T09:35:02;2.20;99.90
9939;DHT22;5008;50.656;7.188;2024-01-16T09:37:33;2.20;99.90
9939;DHT22;5008;50.656;7.188;2024-01-16T09:40:00;2.30;99.90
9939;DHT22;5008;50.656;7.188;2024-01-16T09:42:27;2.40;99.90
9939;DHT22;5008;50.656;7.188;2024-01-16T09:44:55;2.40;99.90
9939;DHT22;5008;50.656;7.188;2024-01-16T09:47:23;2.40;99.90
9939;DHT22;5008;50.656;7.188;2024-01-16T09:49:50;2.50;99.90
9939;DHT22;5008;50.656;7.188;2024-01-16T09:52:18;2.50;99.90
9939;DHT22;5008;50.656;7.188;2024-01-16T09:54:47;2.40;99.90
9939;DHT22;5008;50.656;7.188;2024-01-16T09:57:15;2.40;99.90
9939;DHT22;5008;50.656;7.188;2024-01-16T09:59:43;2.40;99.90
9939;DHT22;5008;50.656;7.188;2024-01-16T10:02:12;2.30;99.90
9939;DHT22;5008;50.656;7.188;2024-01-16T10:04:40;2.40;99.90
9939;DHT22;5008;50.656;7.188;2024-01-16T10:07:08;2.40;99.90
9939;DHT22;5008;50.656;7.188;2024-01-16T10:09:36;2.50;99.90
9939;DHT22;5008;50.656;7.188;2024-01-16T10:12:06;2.70;99.90
9939;DHT22;5008;50.656;7.188;2024-01-16T10:14:33;2.80;99.90
9939;DHT22;5008;50.656;7.188;2024-01-16T10:17:02;2.80;99.90
9939;DHT22;5008;50.656;7.188;2024-01-16T10:19:31;2.90;99.90
9939;DHT22;5008;50.656;7.188;2024-01-16T10:22:01;2.90;99.90
9939;DHT22;5008;50.656;7.188;2024-01-16T10:24:28;3.10;99.90
9939;DHT22;5008;50.656;7.188;2024-01-16T10:26:58;3.10;99.90
9939;DHT22;5008;50.656;7.188;2024-01-16T10:29:28;3.30;99.90
9939;DHT22;5008;50.656;7.188;2024-01-16T10:31:55;3.30;99.90
9939;DHT22;5008;50.656;7.188;2024-01-16T10:34:22;3.30;99.90
9939;DHT22;5008;50.656;7.188;2024-01-16T10:36:50;3.20;99.90
9939;DHT22;5008;50.656;7.188;2024-01-16T10:39:17;3.30;99.90
9939;DHT22;5008;50.656;7.188;2024-01-16T10:41:53;3.40;99.90
9939;DHT22;5008;50.656;7.188;2024-01-16T10:44:21;3.40;99.90
9939;DHT22;5008;50.656;7.188;2024-01-16T10:46:49;3.20;99.90
9939;DHT22;5008;50.656;7.188;2024-01-16T10:49:16;3.20;99.90
9939;DHT22;5008;50.656;7.188;2024-01-16T10:51:43;3.10;99.90
9939;DHT22;5008;50.656;7.188;2024-01-16T10:54:13;3.30;99.90
9939;DHT22;5008;50.656;7.188;2024-01-16T10:56:44;3.30;99.90
9939;DHT22;5008;50.656;7.188;2024-01-16T10:59:18;3.40;99.90
9939;DHT22;5008;50.656;7.188;2024-01-16T11:01:51;3.60;99.90
9939;DHT22;5008;50.656;7.188;2024-01-16T11:04:20;3.60;99.90
9939;DHT22;5008;50.656;7.188;2024-01-16T11:06:47;3.40;99.90
9939;DHT22;5008;50.656;7.188;2024-01-16T11:09:14;3.50;99.90
9939;DHT22;5008;50.656;7.188;2024-01-16T11:11:42;3.50;99.90
9939;DHT22;5008;50.656;7.188;2024-01-16T11:14:11;3.50;99.90
9939;DHT22;5008;50.656;7.188;2024-01-16T11:16:39;3.50;99.90
9939;DHT22;5008;50.656;7.188;2024-01-16T11:19:09;3.30;99.90
9939;DHT22;5008;50.656;7.188;2024-01-16T11:21:37;3.40;99.90
9939;DHT22;5008;50.656;7.188;2024-01-16T11:24:04;3.40;99.90
9939;DHT22;5008;50.656;7.188;2024-01-16T11:26:33;3.50;99.90
9939;DHT22;5008;50.656;7.188;2024-01-16T11:29:34;4.20;99.90
9939;DHT22;5008;50.656;7.188;2024-01-16T11:32:02;4.10;99.90
9939;DHT22;5008;50.656;7.188;2024-01-16T11:35:03;4.00;99.90
9939;DHT22;5008;50.656;7.188;2024-01-16T11:37:32;4.00;99.90
9939;DHT22;5008;50.656;7.188;2024-01-16T11:40:20;4.10;99.90
9939;DHT22;5008;50.656;7.188;2024-01-16T11:42:47;4.10;99.90
9939;DHT22;5008;50.656;7.188;2024-01-16T11:45:47;3.90;99.90
9939;DHT22;5008;50.656;7.188;2024-01-16T11:48:16;4.10;99.90
9939;DHT22;5008;50.656;7.188;2024-01-16T11:50:44;4.00;99.90
9939;DHT22;5008;50.656;7.188;2024-01-16T11:53:31;4.00;99.90
9939;DHT22;5008;50.656;7.188;2024-01-16T11:56:12;4.00;99.90
9939;DHT22;5008;50.656;7.188;2024-01-16T11:58:48;4.20;99.90
9939;DHT22;5008;50.656;7.188;2024-01-16T12:01:17;4.30;99.90
9939;DHT22;5008;50.656;7.188;2024-01-16T12:03:45;4.40;99.90
9939;DHT22;5008;50.656;7.188;2024-01-16T12:06:16;4.40;99.90
9939;DHT22;5008;50.656;7.188;2024-01-16T12:08:42;4.10;99.90
9939;DHT22;5008;50.656;7.188;2024-01-16T12:11:09;4.30;99.90
9939;DHT22;5008;50.656;7.188;2024-01-16T12:13:36;4.30;99.90
9939;DHT22;5008;50.656;7.188;2024-01-16T12:16:04;4.50;99.90
9939;DHT22;5008;50.656;7.188;2024-01-16T12:18:31;4.50;99.90
9939;DHT22;5008;50.656;7.188;2024-01-16T12:20:57;4.60;99.90
9939;DHT22;5008;50.656;7.188;2024-01-16T12:23:35;4.80;99.90
9939;DHT22;5008;50.656;7.188;2024-01-16T12:26:02;5.10;99.90
9939;DHT22;5008;50.656;7.188;2024-01-16T12:28:29;5.30;99.90
9939;DHT22;5008;50.656;7.188;2024-01-16T12:30:56;5.50;99.90
9939;DHT22;5008;50.656;7.188;2024-01-16T12:33:23;5.60;99.90
9939;DHT22;5008;50.656;7.188;2024-01-16T12:35:50;5.70;99.90
9939;DHT22;5008;50.656;7.188;2024-01-16T12:38:17;5.80;99.90
9939;DHT22;5008;50.656;7.188;2024-01-16T12:40:48;5.90;99.90
9939;DHT22;5008;50.656;7.188;2024-01-16T12:43:18;6.10;99.90
9939;DHT22;5008;50.656;7.188;2024-01-16T12:45:45;6.30;99.90
9939;DHT22;5008;50.656;7.188;2024-01-16T12:48:12;6.80;99.90
9939;DHT22;5008;50.656;7.188;2024-01-16T12:50:39;7.70;99.90
9939;DHT22;5008;50.656;7.188;2024-01-16T12:53:07;8.50;99.90
9939;DHT22;5008;50.656;7.188;2024-01-16T12:55:35;9.10;99.90
9939;DHT22;5008;50.656;7.188;2024-01-16T12:58:17;8.80;99.90
9939;DHT22;5008;50.656;7.188;2024-01-16T13:00:44;7.50;99.90
9939;DHT22;5008;50.656;7.188;2024-01-16T13:03:15;6.70;99.90
9939;DHT22;5008;50.656;7.188;2024-01-16T13:05:43;5.80;99.90
9939;DHT22;5008;50.656;7.188;2024-01-16T13:08:18;5.40;99.90
9939;DHT22;5008;50.656;7.188;2024-01-16T13:11:08;5.10;99.90
9939;DHT22;5008;50.656;7.188;2024-01-16T13:13:37;4.80;99.90
9939;DHT22;5008;50.656;7.188;2024-01-16T13:16:04;4.50;99.90
9939;DHT22;5008;50.656;7.188;2024-01-16T13:18:31;4.50;99.90
9939;DHT22;5008;50.656;7.188;2024-01-16T13:20:59;4.30;99.90
9939;DHT22;5008;50.656;7.188;2024-01-16T13:23:27;4.10;99.90
9939;DHT22;5008;50.656;7.188;2024-01-16T13:25:55;4.00;99.90
9939;DHT22;5008;50.656;7.188;2024-01-16T13:28:23;3.90;99.90
9939;DHT22;5008;50.656;7.188;2024-01-16T13:30:51;4.00;99.90
9939;DHT22;5008;50.656;7.188;2024-01-16T13:33:18;3.90;99.90
9939;DHT22;5008;50.656;7.188;2024-01-16T13:35:47;3.90;99.90
9939;DHT22;5008;50.656;7.188;2024-01-16T13:38:14;3.90;99.90
9939;DHT22;5008;50.656;7.188;2024-01-16T13:40:41;3.80;99.90
9939;DHT22;5008;50.656;7.188;2024-01-16T13:43:08;3.80;99.90
9939;DHT22;5008;50.656;7.188;2024-01-16T13:45:37;3.80;99.90
9939;DHT22;5008;50.656;7.188;2024-01-16T13:48:06;3.80;99.90
9939;DHT22;5008;50.656;7.188;2024-01-16T13:50:33;3.70;99.90
9939;DHT22;5008;50.656;7.188;2024-01-16T13:53:00;3.60;99.90
9939;DHT22;5008;50.656;7.188;2024-01-16T13:55:27;3.70;99.90
9939;DHT22;5008;50.656;7.188;2024-01-16T13:57:54;3.80;99.90
9939;DHT22;5008;50.656;7.188;2024-01-16T14:00:21;3.80;99.90
9939;DHT22;5008;50.656;7.188;2024-01-16T14:02:48;3.90;99.90
9939;DHT22;5008;50.656;7.188;2024-01-16T14:05:18;3.90;99.90
9939;DHT22;5008;50.656;7.188;2024-01-16T14:07:46;4.50;99.90
9939;DHT22;5008;50.656;7.188;2024-01-16T14:10:14;5.80;99.90
9939;DHT22;5008;50.656;7.188;2024-01-16T14:12:41;7.00;99.90
9939;DHT22;5008;50.656;7.188;2024-01-16T14:15:09;7.50;99.90
9939;DHT22;5008;50.656;7.188;2024-01-16T14:17:41;8.00;99.90
9939;DHT22;5008;50.656;7.188;2024-01-16T14:20:10;8.70;99.90
9939;DHT22;5008;50.656;7.188;2024-01-16T14:22:39;8.40;99.90
9939;DHT22;5008;50.656;7.188;2024-01-16T14:25:07;7.60;99.90
9939;DHT22;5008;50.656;7.188;2024-01-16T14:27:37;6.40;99.90
9939;DHT22;5008;50.656;7.188;2024-01-16T14:30:05;6.00;99.90
9939;DHT22;5008;50.656;7.188;2024-01-16T14:32:33;5.50;99.90
9939;DHT22;5008;50.656;7.188;2024-01-16T14:35:00;4.80;99.90
9939;DHT22;5008;50.656;7.188;2024-01-16T14:37:29;4.50;99.90
9939;DHT22;5008;50.656;7.188;2024-01-16T14:39:58;4.30;99.90
9939;DHT22;5008;50.656;7.188;2024-01-16T14:42:27;4.30;99.90
9939;DHT22;5008;50.656;7.188;2024-01-16T14:44:54;3.90;99.90
9939;DHT22;5008;50.656;7.188;2024-01-16T14:47:21;3.80;99.90
9939;DHT22;5008;50.656;7.188;2024-01-16T14:49:49;3.60;99.90
9939;DHT22;5008;50.656;7.188;2024-01-16T14:52:16;3.50;99.90
9939;DHT22;5008;50.656;7.188;2024-01-16T14:54:43;3.40;99.90
9939;DHT22;5008;50.656;7.188;2024-01-16T14:57:11;3.50;99.90
9939;DHT22;5008;50.656;7.188;2024-01-16T14:59:39;3.50;99.90
9939;DHT22;5008;50.656;7.188;2024-01-16T15:02:07;3.40;99.90
9939;DHT22;5008;50.656;7.188;2024-01-16T15:04:38;3.30;99.90
9939;DHT22;5008;50.656;7.188;2024-01-16T15:07:05;3.20;99.90
9939;DHT22;5008;50.656;7.188;2024-01-16T15:09:31;3.00;99.90
9939;DHT22;5008;50.656;7.188;2024-01-16T15:12:00;3.00;99.90
9939;DHT22;5008;50.656;7.188;2024-01-16T15:14:28;3.00;99.90
9939;DHT22;5008;50.656;7.188;2024-01-16T15:16:55;2.90;99.90
9939;DHT22;5008;50.656;7.188;2024-01-16T15:19:21;2.80;99.90
9939;DHT22;5008;50.656;7.188;2024-01-16T15:21:48;2.70;99.90
9939;DHT22;5008;50.656;7.188;2024-01-16T15:24:16;2.60;99.90
9939;DHT22;5008;50.656;7.188;2024-01-16T15:26:47;2.60;99.90
9939;DHT22;5008;50.656;7.188;2024-01-16T15:29:14;2.50;99.90
9939;DHT22;5008;50.656;7.188;2024-01-16T15:31:42;2.40;99.90
9939;DHT22;5008;50.656;7.188;2024-01-16T15:34:09;2.30;99.90
9939;DHT22;5008;50.656;7.188;2024-01-16T15:36:35;2.10;99.90
9939;DHT22;5008;50.656;7.188;2024-01-16T15:39:02;2.10;99.90
9939;DHT22;5008;50.656;7.188;2024-01-16T15:41:29;2.00;99.90
9939;DHT22;5008;50.656;7.188;2024-01-16T15:43:56;1.90;99.90
9939;DHT22;5008;50.656;7.188;2024-01-16T15:46:23;1.80;99.90
9939;DHT22;5008;50.656;7.188;2024-01-16T15:48:52;1.70;99.90
9939;DHT22;5008;50.656;7.188;2024-01-16T15:51:21;1.80;99.90
9939;DHT22;5008;50.656;7.188;2024-01-16T15:53:48;1.70;99.90
9939;DHT22;5008;50.656;7.188;2024-01-16T15:56:15;1.70;99.90
9939;DHT22;5008;50.656;7.188;2024-01-16T15:58:42;1.50;99.90
9939;DHT22;5008;50.656;7.188;2024-01-16T16:01:09;1.40;99.90
9939;DHT22;5008;50.656;7.188;2024-01-16T16:03:36;1.20;99.90
9939;DHT22;5008;50.656;7.188;2024-01-16T16:06:05;1.30;99.90
9939;DHT22;5008;50.656;7.188;2024-01-16T16:08:35;1.20;99.90
9939;DHT22;5008;50.656;7.188;2024-01-16T16:11:09;1.30;99.90
9939;DHT22;5008;50.656;7.188;2024-01-16T16:13:35;1.20;99.90
9939;DHT22;5008;50.656;7.188;2024-01-16T16:16:02;1.10;99.90
9939;DHT22;5008;50.656;7.188;2024-01-16T16:18:29;1.10;99.90
9939;DHT22;5008;50.656;7.188;2024-01-16T16:20:59;1.00;99.90
9939;DHT22;5008;50.656;7.188;2024-01-16T16:23:28;0.90;99.90
9939;DHT22;5008;50.656;7.188;2024-01-16T16:25:55;0.80;99.90
9939;DHT22;5008;50.656;7.188;2024-01-16T16:28:22;0.80;99.90
9939;DHT22;5008;50.656;7.188;2024-01-16T16:30:48;0.80;99.90
9939;DHT22;5008;50.656;7.188;2024-01-16T16:33:15;0.80;99.90
9939;DHT22;5008;50.656;7.188;2024-01-16T16:35:42;0.80;99.90
9939;DHT22;5008;50.656;7.188;2024-01-16T16:38:09;0.70;99.90
9939;DHT22;5008;50.656;7.188;2024-01-16T16:40:37;0.60;99.90
9939;DHT22;5008;50.656;7.188;2024-01-16T16:43:04;0.60;99.90
9939;DHT22;5008;50.656;7.188;2024-01-16T16:45:31;0.50;99.90
9939;DHT22;5008;50.656;7.188;2024-01-16T16:47:58;0.50;99.90
9939;DHT22;5008;50.656;7.188;2024-01-16T16:50:25;0.50;99.90
9939;DHT22;5008;50.656;7.188;2024-01-16T16:52:51;0.50;99.90
9939;DHT22;5008;50.656;7.188;2024-01-16T16:55:18;0.50;99.90
9939;DHT22;5008;50.656;7.188;2024-01-16T16:57:46;0.50;99.90
9939;DHT22;5008;50.656;7.188;2024-01-16T17:00:14;0.50;99.90
9939;DHT22;5008;50.656;7.188;2024-01-16T17:02:41;0.50;99.90
9939;DHT22;5008;50.656;7.188;2024-01-16T17:05:08;0.60;99.90
9939;DHT22;5008;50.656;7.188;2024-01-16T17:07:35;0.50;99.90
9939;DHT22;5008;50.656;7.188;2024-01-16T17:10:02;0.50;99.90
9939;DHT22;5008;50.656;7.188;2024-01-16T17:12:28;0.40;99.90
9939;DHT22;5008;50.656;7.188;2024-01-16T17:14:59;0.40;99.90
9939;DHT22;5008;50.656;7.188;2024-01-16T17:17:25;0.40;99.90
9939;DHT22;5008;50.656;7.188;2024-01-16T17:20:00;0.30;99.90
9939;DHT22;5008;50.656;7.188;2024-01-16T17:22:27;0.30;99.90
9939;DHT22;5008;50.656;7.188;2024-01-16T17:24:54;0.30;99.90
9939;DHT22;5008;50.656;7.188;2024-01-16T17:27:21;0.20;99.90
9939;DHT22;5008;50.656;7.188;2024-01-16T17:29:48;0.10;99.90
9939;DHT22;5008;50.656;7.188;2024-01-16T17:32:19;0.20;99.90
9939;DHT22;5008;50.656;7.188;2024-01-16T17:34:47;0.10;99.90
9939;DHT22;5008;50.656;7.188;2024-01-16T17:37:14;0.00;99.90
9939;DHT22;5008;50.656;7.188;2024-01-16T17:39:42;0.00;99.90
9939;DHT22;5008;50.656;7.188;2024-01-16T17:42:11;-0.20;99.90
9939;DHT22;5008;50.656;7.188;2024-01-16T17:44:46;-0.10;99.90
9939;DHT22;5008;50.656;7.188;2024-01-16T17:47:12;-0.20;99.90
9939;DHT22;5008;50.656;7.188;2024-01-16T17:49:41;-0.20;99.90
9939;DHT22;5008;50.656;7.188;2024-01-16T17:52:08;-0.30;99.90
9939;DHT22;5008;50.656;7.188;2024-01-16T17:54:38;-0.20;99.90
9939;DHT22;5008;50.656;7.188;2024-01-16T17:57:05;-0.30;99.90
9939;DHT22;5008;50.656;7.188;2024-01-16T17:59:31;-0.40;99.90
9939;DHT22;5008;50.656;7.188;2024-01-16T18:01:59;-0.60;99.90
9939;DHT22;5008;50.656;7.188;2024-01-16T18:04:26;-0.50;99.90
9939;DHT22;5008;50.656;7.188;2024-01-16T18:06:55;-0.50;99.90
9939;DHT22;5008;50.656;7.188;2024-01-16T18:09:21;-0.60;99.90
9939;DHT22;5008;50.656;7.188;2024-01-16T18:11:55;-0.60;99.90
9939;DHT22;5008;50.656;7.188;2024-01-16T18:14:22;-0.60;99.90
9939;DHT22;5008;50.656;7.188;2024-01-16T18:16:49;-0.60;99.90
9939;DHT22;5008;50.656;7.188;2024-01-16T18:19:16;-0.70;99.90
9939;DHT22;5008;50.656;7.188;2024-01-16T18:21:45;-0.70;99.90
9939;DHT22;5008;50.656;7.188;2024-01-16T18:24:13;-0.80;99.90
9939;DHT22;5008;50.656;7.188;2024-01-16T18:26:41;-0.90;99.90
9939;DHT22;5008;50.656;7.188;2024-01-16T18:29:09;-0.90;99.90
9939;DHT22;5008;50.656;7.188;2024-01-16T18:31:36;-0.90;99.90
9939;DHT22;5008;50.656;7.188;2024-01-16T18:34:04;-0.80;99.90
9939;DHT22;5008;50.656;7.188;2024-01-16T18:36:32;-0.90;99.90
9939;DHT22;5008;50.656;7.188;2024-01-16T18:38:58;-0.80;99.90
9939;DHT22;5008;50.656;7.188;2024-01-16T18:41:26;-0.90;99.90
9939;DHT22;5008;50.656;7.188;2024-01-16T18:43:53;-1.00;99.90
9939;DHT22;5008;50.656;7.188;2024-01-16T18:46:20;-1.00;99.90
9939;DHT22;5008;50.656;7.188;2024-01-16T18:48:49;-1.10;99.90
9939;DHT22;5008;50.656;7.188;2024-01-16T18:51:15;-1.00;99.90
9939;DHT22;5008;50.656;7.188;2024-01-16T18:53:42;-0.90;99.90
9939;DHT22;5008;50.656;7.188;2024-01-16T18:56:12;-1.00;99.90
9939;DHT22;5008;50.656;7.188;2024-01-16T18:58:41;-1.00;99.90
9939;DHT22;5008;50.656;7.188;2024-01-16T19:01:08;-1.10;99.90
9939;DHT22;5008;50.656;7.188;2024-01-16T19:03:36;-1.10;99.90
9939;DHT22;5008;50.656;7.188;2024-01-16T19:06:04;-1.30;99.90
9939;DHT22;5008;50.656;7.188;2024-01-16T19:08:39;-1.20;99.90
9939;DHT22;5008;50.656;7.188;2024-01-16T19:11:07;-1.20;99.90
9939;DHT22;5008;50.656;7.188;2024-01-16T19:13:34;-1.30;99.90
9939;DHT22;5008;50.656;7.188;2024-01-16T19:16:03;-1.30;99.90
9939;DHT22;5008;50.656;7.188;2024-01-16T19:18:32;-1.40;99.90
9939;DHT22;5008;50.656;7.188;2024-01-16T19:20:59;-1.30;99.90
9939;DHT22;5008;50.656;7.188;2024-01-16T19:23:29;-1.20;99.90
9939;DHT22;5008;50.656;7.188;2024-01-16T19:25:56;-1.30;99.90
9939;DHT22;5008;50.656;7.188;2024-01-16T19:28:23;-1.30;99.90
9939;DHT22;5008;50.656;7.188;2024-01-16T19:30:50;-1.30;99.90
9939;DHT22;5008;50.656;7.188;2024-01-16T19:33:20;-1.30;99.90
9939;DHT22;5008;50.656;7.188;2024-01-16T19:35:47;-1.30;99.90
9939;DHT22;5008;50.656;7.188;2024-01-16T19:38:14;-1.30;99.90
9939;DHT22;5008;50.656;7.188;2024-01-16T19:40:40;-1.30;99.90
9939;DHT22;5008;50.656;7.188;2024-01-16T19:43:07;-1.20;99.90
9939;DHT22;5008;50.656;7.188;2024-01-16T19:45:34;-1.50;99.90
9939;DHT22;5008;50.656;7.188;2024-01-16T19:48:01;-1.50;99.90
9939;DHT22;5008;50.656;7.188;2024-01-16T19:50:29;-1.50;99.90
9939;DHT22;5008;50.656;7.188;2024-01-16T19:52:57;-1.50;99.90
9939;DHT22;5008;50.656;7.188;2024-01-16T19:55:25;-1.60;99.90
9939;DHT22;5008;50.656;7.188;2024-01-16T19:57:52;-1.60;99.90
9939;DHT22;5008;50.656;7.188;2024-01-16T20:00:19;-1.50;99.90
9939;DHT22;5008;50.656;7.188;2024-01-16T20:02:46;-1.50;99.90
9939;DHT22;5008;50.656;7.188;2024-01-16T20:05:13;-1.50;99.90
9939;DHT22;5008;50.656;7.188;2024-01-16T20:07:42;-1.60;99.90
9939;DHT22;5008;50.656;7.188;2024-01-16T20:10:10;-1.70;99.90
9939;DHT22;5008;50.656;7.188;2024-01-16T20:12:39;-1.70;99.90
9939;DHT22;5008;50.656;7.188;2024-01-16T20:15:06;-1.70;99.90
9939;DHT22;5008;50.656;7.188;2024-01-16T20:17:33;-1.80;99.90
9939;DHT22;5008;50.656;7.188;2024-01-16T20:20:00;-1.70;99.90
9939;DHT22;5008;50.656;7.188;2024-01-16T20:22:33;-1.60;99.90
9939;DHT22;5008;50.656;7.188;2024-01-16T20:25:01;-1.70;99.90
9939;DHT22;5008;50.656;7.188;2024-01-16T20:27:28;-1.80;99.90
9939;DHT22;5008;50.656;7.188;2024-01-16T20:29:55;-1.80;99.90
9939;DHT22;5008;50.656;7.188;2024-01-16T20:32:21;-1.90;99.90
9939;DHT22;5008;50.656;7.188;2024-01-16T20:34:48;-1.90;99.90
9939;DHT22;5008;50.656;7.188;2024-01-16T20:37:15;-1.90;99.90
9939;DHT22;5008;50.656;7.188;2024-01-16T20:39:42;-1.90;99.90
9939;DHT22;5008;50.656;7.188;2024-01-16T20:42:10;-1.90;99.90
9939;DHT22;5008;50.656;7.188;2024-01-16T20:44:37;-1.90;99.90
9939;DHT22;5008;50.656;7.188;2024-01-16T20:47:04;-1.80;99.90
9939;DHT22;5008;50.656;7.188;2024-01-16T20:49:31;-1.90;99.90
9939;DHT22;5008;50.656;7.188;2024-01-16T20:51:59;-1.70;99.90
9939;DHT22;5008;50.656;7.188;2024-01-16T20:54:26;-1.70;99.90
9939;DHT22;5008;50.656;7.188;2024-01-16T20:56:53;-1.80;99.90
9939;DHT22;5008;50.656;7.188;2024-01-16T20:59:22;-1.90;99.90
9939;DHT22;5008;50.656;7.188;2024-01-16T21:01:49;-1.90;99.90
9939;DHT22;5008;50.656;7.188;2024-01-16T21:04:17;-1.80;99.90
9939;DHT22;5008;50.656;7.188;2024-01-16T21:06:43;-1.80;99.90
9939;DHT22;5008;50.656;7.188;2024-01-16T21:09:10;-1.90;99.90
9939;DHT22;5008;50.656;7.188;2024-01-16T21:11:41;-2.10;99.90
9939;DHT22;5008;50.656;7.188;2024-01-16T21:14:08;-2.00;99.90
9939;DHT22;5008;50.656;7.188;2024-01-16T21:16:36;-2.00;99.90
9939;DHT22;5008;50.656;7.188;2024-01-16T21:19:03;-2.10;99.90
9939;DHT22;5008;50.656;7.188;2024-01-16T21:21:31;-2.00;99.90